createdAt,value
2018-07-01T00:03:55.146Z,18.50
2018-07-01T00:08:58.759Z,18.50
2018-07-01T00:14:02.224Z,18.50
2018-07-01T00:19:05.960Z,18.50
2018-07-01T00:24:09.302Z,18.40
2018-07-01T00:29:12.675Z,18.30
2018-07-01T00:34:16.183Z,18.40
2018-07-01T00:39:20.036Z,18.40
2018-07-01T00:44:23.796Z,18.30
2018-07-01T00:49:28.241Z,18.20
2018-07-01T00:54:31.907Z,18.10
2018-07-01T00:59:36.334Z,18.10
2018-07-01T01:04:40.692Z,17.90
2018-07-01T01:09:44.141Z,17.80
2018-07-01T01:14:48.196Z,17.70
2018-07-01T01:19:51.850Z,17.70
2018-07-01T01:24:56.642Z,17.50
2018-07-01T01:30:01.895Z,17.40
2018-07-01T01:35:14.394Z,17.30
2018-07-01T01:40:20.969Z,17.30
2018-07-01T01:45:30.681Z,17.30
2018-07-01T01:50:42.691Z,17.20
2018-07-01T01:55:49.994Z,17.20
2018-07-01T02:01:05.554Z,17.10
2018-07-01T02:06:13.933Z,17.10
2018-07-01T02:11:18.107Z,17.00
2018-07-01T02:16:27.458Z,17.00
2018-07-01T02:21:31.115Z,16.90
2018-07-01T02:26:35.651Z,16.80
2018-07-01T02:31:39.793Z,16.80
2018-07-01T02:36:43.276Z,16.70
2018-07-01T02:41:46.764Z,16.60
2018-07-01T02:46:50.422Z,16.50
2018-07-01T02:51:53.859Z,16.40
2018-07-01T02:56:57.290Z,16.30
2018-07-01T03:02:00.724Z,16.10
2018-07-01T03:07:04.099Z,15.80
2018-07-01T03:12:07.715Z,15.60
2018-07-01T03:17:11.143Z,15.50
2018-07-01T03:22:21.029Z,15.50
2018-07-01T03:27:24.419Z,15.30
2018-07-01T03:32:27.910Z,15.10
2018-07-01T03:37:31.327Z,15.10
2018-07-01T03:42:34.937Z,15.00
2018-07-01T03:47:38.488Z,14.80
2018-07-01T03:52:42.842Z,14.70
2018-07-01T03:57:46.450Z,14.80
2018-07-01T04:02:49.785Z,14.80
2018-07-01T04:07:54.055Z,14.50
2018-07-01T04:12:57.475Z,14.50
2018-07-01T04:18:01.605Z,14.60
2018-07-01T04:23:05.011Z,14.50
2018-07-01T04:28:08.508Z,14.60
2018-07-01T04:33:12.634Z,14.80
2018-07-01T04:38:16.096Z,15.00
2018-07-01T04:43:19.441Z,15.00
2018-07-01T04:48:22.815Z,15.20
2018-07-01T04:53:26.181Z,15.60
2018-07-01T04:58:30.876Z,16.00
2018-07-01T05:03:34.308Z,16.40
2018-07-01T05:08:37.743Z,16.80
2018-07-01T05:13:41.236Z,17.10
2018-07-01T05:18:44.799Z,17.30
2018-07-01T05:23:48.336Z,17.60
2018-07-01T05:28:51.845Z,17.80
2018-07-01T05:33:56.175Z,17.90
2018-07-01T05:38:59.662Z,17.90
2018-07-01T05:44:04.038Z,18.10
2018-07-01T05:49:07.913Z,18.20
2018-07-01T05:54:12.035Z,18.20
2018-07-01T05:59:15.730Z,18.30
2018-07-01T06:04:19.285Z,18.50
2018-07-01T06:09:23.619Z,18.60
2018-07-01T06:14:27.110Z,18.80
2018-07-01T06:19:30.568Z,19.10
2018-07-01T06:24:34.079Z,19.30
2018-07-01T06:29:37.367Z,19.50
2018-07-01T06:34:42.524Z,19.60
2018-07-01T06:39:45.971Z,19.80
2018-07-01T06:44:49.450Z,20.10
2018-07-01T06:49:52.927Z,20.30
2018-07-01T06:54:56.702Z,20.50
2018-07-01T07:00:00.822Z,20.70
2018-07-01T07:05:04.743Z,20.80
2018-07-01T07:10:08.325Z,20.90
2018-07-01T07:15:12.600Z,21.30
2018-07-01T07:20:16.094Z,21.50
2018-07-01T07:25:19.674Z,21.70
2018-07-01T07:30:23.277Z,22.00
2018-07-01T07:35:26.788Z,22.00
2018-07-01T07:40:30.418Z,22.40
2018-07-01T07:45:33.952Z,23.00
2018-07-01T07:50:37.933Z,22.90
2018-07-01T07:55:41.354Z,23.30
2018-07-01T08:00:45.390Z,22.70
2018-07-01T08:05:48.834Z,22.90
2018-07-01T08:10:52.339Z,23.10
2018-07-01T08:15:55.832Z,23.20
2018-07-01T08:20:59.240Z,23.60
2018-07-01T08:26:15.182Z,23.60
2018-07-01T08:31:19.919Z,23.80
2018-07-01T08:36:23.536Z,24.00
2018-07-01T08:41:28.483Z,24.30
2018-07-01T08:46:32.781Z,24.50
2018-07-01T08:51:36.419Z,24.70
2018-07-01T08:56:39.914Z,24.60
2018-07-01T09:01:43.384Z,24.70
2018-07-01T09:16:33.575Z,24.70
2018-07-01T09:21:38.025Z,24.90
2018-07-01T09:26:41.560Z,25.50
2018-07-01T09:31:48.424Z,25.80
2018-07-01T09:36:52.972Z,26.10
2018-07-01T09:41:56.717Z,25.90
2018-07-01T09:47:00.365Z,26.20
2018-07-01T09:52:03.921Z,26.40
2018-07-01T09:57:07.425Z,26.50
2018-07-01T10:02:11.422Z,26.90
2018-07-01T10:07:15.014Z,27.20
2018-07-01T10:12:18.568Z,27.10
2018-07-01T10:17:22.087Z,27.40
2018-07-01T10:22:25.651Z,27.10
2018-07-01T10:27:29.131Z,26.90
2018-07-01T10:32:32.764Z,27.40
2018-07-01T10:37:36.825Z,27.50
2018-07-01T10:42:40.614Z,27.90
2018-07-01T10:47:44.203Z,28.10
2018-07-01T10:52:48.625Z,28.10
2018-07-01T10:57:52.730Z,28.10
2018-07-01T11:02:56.224Z,28.30
2018-07-01T11:07:59.685Z,28.60
2018-07-01T11:13:03.167Z,29.20
2018-07-01T11:18:06.777Z,29.50
2018-07-01T11:23:10.332Z,29.30
2018-07-01T11:28:13.823Z,29.40
2018-07-01T11:33:17.334Z,29.80
2018-07-01T11:38:20.932Z,29.60
2018-07-01T11:43:24.435Z,29.80
2018-07-01T11:48:27.919Z,29.80
2018-07-01T11:53:31.458Z,29.80
2018-07-01T11:58:34.989Z,30.00
2018-07-01T12:03:38.582Z,30.40
2018-07-01T12:08:42.023Z,30.30
2018-07-01T12:13:45.584Z,30.20
2018-07-01T12:18:49.175Z,30.30
2018-07-01T12:23:52.783Z,30.30
2018-07-01T12:28:56.277Z,30.30
2018-07-01T12:33:59.793Z,29.80
2018-07-01T12:39:03.618Z,30.00
2018-07-01T12:44:07.066Z,30.50
2018-07-01T12:49:10.510Z,30.70
2018-07-01T12:54:14.171Z,30.40
2018-07-01T12:59:18.763Z,30.40
2018-07-01T13:04:22.444Z,30.30
2018-07-01T13:09:26.846Z,30.30
2018-07-01T13:14:30.424Z,30.30
2018-07-01T13:19:34.015Z,30.60
2018-07-01T13:24:37.521Z,30.50
2018-07-01T13:29:41.123Z,30.40
2018-07-01T13:34:44.679Z,30.30
2018-07-01T13:39:48.284Z,30.70
2018-07-01T13:44:51.905Z,30.50
2018-07-01T13:49:55.568Z,30.50
2018-07-01T13:54:58.975Z,30.70
2018-07-01T14:00:02.835Z,31.00
2018-07-01T14:05:06.431Z,31.00
2018-07-01T14:10:10.046Z,30.60
2018-07-01T14:15:13.747Z,30.60
2018-07-01T14:20:17.898Z,30.70
2018-07-01T14:25:27.503Z,30.70
2018-07-01T14:30:31.132Z,30.80
2018-07-01T14:35:37.002Z,31.00
2018-07-01T14:40:40.464Z,30.90
2018-07-01T14:45:44.046Z,31.30
2018-07-01T14:50:48.081Z,31.30
2018-07-01T14:55:56.033Z,31.60
2018-07-01T15:01:01.562Z,31.80
2018-07-01T15:06:07.854Z,31.70
2018-07-01T15:11:11.358Z,31.60
2018-07-01T15:16:15.686Z,31.20
2018-07-01T15:21:23.571Z,31.00
2018-07-01T15:26:27.080Z,31.30
2018-07-01T15:31:30.519Z,31.10
2018-07-01T15:36:33.962Z,31.00
2018-07-01T15:41:37.420Z,31.30
2018-07-01T15:46:40.930Z,30.40
2018-07-01T15:51:44.594Z,30.20
2018-07-01T15:56:48.355Z,30.10
2018-07-01T16:01:52.061Z,30.20
2018-07-01T16:06:55.514Z,30.60
2018-07-01T16:11:59.159Z,30.30
2018-07-01T16:17:02.854Z,30.70
2018-07-01T16:22:11.323Z,30.50
2018-07-01T16:27:22.609Z,30.60
2018-07-01T16:32:34.911Z,30.40
2018-07-01T16:37:43.077Z,30.90
2018-07-01T16:42:50.790Z,30.90
2018-07-01T16:47:54.417Z,30.70
2018-07-01T16:52:57.895Z,30.60
2018-07-01T16:58:03.402Z,30.90
2018-07-01T17:03:10.688Z,31.20
2018-07-01T17:08:19.147Z,31.70
2018-07-01T17:13:22.610Z,32.10
2018-07-01T17:18:26.085Z,32.00
2018-07-01T17:23:29.587Z,31.80
2018-07-01T17:28:35.089Z,32.30
2018-07-01T17:33:38.558Z,32.80
2018-07-01T17:38:42.040Z,33.80
2018-07-01T17:43:45.522Z,34.70
2018-07-01T17:48:49.000Z,34.40
2018-07-01T17:53:54.681Z,33.90
2018-07-01T17:58:59.113Z,33.80
2018-07-01T18:04:04.806Z,33.60
2018-07-01T18:09:09.839Z,34.30
2018-07-01T18:14:15.098Z,33.90
2018-07-01T18:19:19.447Z,34.20
2018-07-01T18:24:48.929Z,33.50
2018-07-01T18:35:07.598Z,31.60
2018-07-01T18:40:22.559Z,30.00
2018-07-01T18:45:27.314Z,28.40
2018-07-01T18:50:31.628Z,27.30
2018-07-01T18:55:41.930Z,26.20
2018-07-01T19:00:46.992Z,25.40
2018-07-01T19:05:51.400Z,24.90
2018-07-01T19:10:56.249Z,24.60
2018-07-01T19:16:00.108Z,24.10
2018-07-01T19:21:08.410Z,23.90
2018-07-01T19:26:14.553Z,23.60
2018-07-01T19:31:18.178Z,23.40
2018-07-01T19:36:26.555Z,23.30
2018-07-01T19:41:30.994Z,22.90
2018-07-01T19:46:36.443Z,22.70
2018-07-01T19:51:40.181Z,22.50
2018-07-01T19:56:43.930Z,22.30
2018-07-01T20:01:47.598Z,22.20
2018-07-01T20:06:51.753Z,22.00
2018-07-01T20:11:59.876Z,21.70
2018-07-01T20:17:03.705Z,21.50
2018-07-01T20:22:14.235Z,21.30
2018-07-01T20:27:22.988Z,21.10
2018-07-01T20:32:27.077Z,20.90
2018-07-01T21:03:46.590Z,20.60
2018-07-01T21:08:52.195Z,19.80
2018-07-01T21:13:58.897Z,19.70
2018-07-01T21:19:07.982Z,19.80
2018-07-01T21:24:18.957Z,19.70
2018-07-01T21:29:23.516Z,19.60
2018-07-01T21:34:27.046Z,19.60
2018-07-01T21:39:30.887Z,19.50
2018-07-01T21:44:36.330Z,19.40
2018-07-01T21:49:46.414Z,19.20
2018-07-01T21:54:52.164Z,19.20
2018-07-01T21:59:55.854Z,19.00
2018-07-01T22:05:01.682Z,19.00
2018-07-01T22:15:29.698Z,18.60
2018-07-01T22:20:42.716Z,18.50
2018-07-01T22:25:47.336Z,18.50
2018-07-01T22:30:52.534Z,18.60
2018-07-01T22:45:51.287Z,18.80
2018-07-01T22:51:00.810Z,18.90
2018-07-01T22:56:04.302Z,19.00
2018-07-01T23:01:19.092Z,19.00
2018-07-01T23:06:26.968Z,18.90
2018-07-01T23:11:36.748Z,19.00
2018-07-01T23:16:42.420Z,18.80
2018-07-01T23:22:01.313Z,18.80
2018-07-01T23:27:04.854Z,18.80
2018-07-01T23:32:08.518Z,18.70
2018-07-01T23:37:12.028Z,18.60
2018-07-01T23:42:15.903Z,18.70
2018-07-01T23:47:20.060Z,18.70
2018-07-01T23:52:23.471Z,18.60
2018-07-01T23:57:26.924Z,18.50
